Time;durP1;ratioP1;P1;durP2;ratioP2;P2;SDS_P1;SDS_P2;PMS_P1;PMS_P2;Temp;Humidity;BMP_temperature;BMP_pressure;BME280_temperature;BME280_humidity;BME280_pressure;Samples;Min_cycle;Max_cycle;Signal;HPM_P1;HPM_P2
2022/04/13 00:01:30;;;;;;;1.50;1.40;;;;;;;;;;4949928;29;20199;-60
2022/04/13 00:03:57;;;;;;;1.77;1.67;;;;;;;;;;4949030;29;20217;-60
2022/04/13 00:06:26;;;;;;;4.73;3.70;;;;;;;;;;4945486;29;20755;-58
2022/04/13 00:08:55;;;;;;;4.90;3.37;;;;;;;;;;4948596;29;20206;-58
2022/04/13 00:11:23;;;;;;;3.13;2.40;;;;;;;;;;4948486;29;20343;-60
2022/04/13 00:13:50;;;;;;;3.97;2.00;;;;;;;;;;4946999;29;20257;-58
2022/04/13 00:16:17;;;;;;;2.43;1.67;;;;;;;;;;4944727;29;20214;-59
2022/04/13 00:18:44;;;;;;;1.70;1.60;;;;;;;;;;4944352;29;20915;-59
2022/04/13 00:21:11;;;;;;;2.30;1.90;;;;;;;;;;4948992;29;20214;-59
2022/04/13 00:23:40;;;;;;;1.40;1.30;;;;;;;;;;4946951;29;21589;-59
2022/04/13 00:26:07;;;;;;;1.50;1.50;;;;;;;;;;4946792;29;20222;-59
2022/04/13 00:28:34;;;;;;;1.90;1.40;;;;;;;;;;4946194;29;20266;-59
2022/04/13 00:31:01;;;;;;;1.67;1.40;;;;;;;;;;4944811;29;20286;-59
2022/04/13 00:33:28;;;;;;;1.50;1.40;;;;;;;;;;4948512;29;20215;-59
2022/04/13 00:35:55;;;;;;;1.30;1.20;;;;;;;;;;4947133;28;20258;-59
2022/04/13 00:38:22;;;;;;;1.70;1.60;;;;;;;;;;4946940;29;20207;-59
2022/04/13 00:40:51;;;;;;;3.03;1.40;;;;;;;;;;4950892;29;20222;-59
2022/04/13 00:43:18;;;;;;;1.13;1.13;;;;;;;;;;4952647;29;20313;-58
2022/04/13 00:45:46;;;;;;;1.30;1.20;;;;;;;;;;4949565;29;20199;-59
2022/04/13 00:48:21;;;;;;;1.43;1.33;;;;;;;;;;4952513;29;20310;-58
2022/04/13 00:50:48;;;;;;;3.07;1.63;;;;;;;;;;4952950;29;20281;-58
2022/04/13 00:53:16;;;;;;;1.57;1.40;;;;;;;;;;4946994;29;20199;-58
2022/04/13 00:55:43;;;;;;;1.00;1.00;;;;;;;;;;4953004;29;20290;-58
2022/04/13 00:58:14;;;;;;;1.10;1.10;;;;;;;;;;4947324;29;20210;-60
2022/04/13 01:00:48;;;;;;;1.00;1.00;;;;;;;;;;4948837;29;20274;-60
2022/04/13 01:03:16;;;;;;;1.60;1.50;;;;;;;;;;4949340;29;20295;-58
2022/04/13 01:05:43;;;;;;;1.23;1.10;;;;;;;;;;4951749;29;20207;-57
2022/04/13 01:08:11;;;;;;;1.17;1.17;;;;;;;;;;4951936;29;20273;-58
2022/04/13 01:10:39;;;;;;;1.17;1.07;;;;;;;;;;4951076;29;20211;-58
2022/04/13 01:13:06;;;;;;;2.50;1.40;;;;;;;;;;4949779;29;20209;-58
2022/04/13 01:15:34;;;;;;;1.20;1.17;;;;;;;;;;4950566;28;20199;-58
2022/04/13 01:18:01;;;;;;;1.10;1.10;;;;;;;;;;4960413;28;20215;-59
2022/04/13 01:20:28;;;;;;;1.70;1.20;;;;;;;;;;4958720;28;20815;-59
2022/04/13 01:22:57;;;;;;;1.33;1.23;;;;;;;;;;4956400;28;20211;-59
2022/04/13 01:25:24;;;;;;;1.43;1.43;;;;;;;;;;4955502;28;20238;-59
2022/04/13 01:27:51;;;;;;;1.00;1.00;;;;;;;;;;4955969;28;20211;-59
2022/04/13 01:30:18;;;;;;;1.40;1.30;;;;;;;;;;4956976;28;20239;-59
2022/04/13 01:32:45;;;;;;;1.20;1.17;;;;;;;;;;4958194;28;20215;-59
2022/04/13 01:35:12;;;;;;;1.37;1.10;;;;;;;;;;4954591;28;20295;-59
2022/04/13 01:37:39;;;;;;;1.20;0.90;;;;;;;;;;4955964;28;20219;-59
2022/04/13 01:40:08;;;;;;;1.30;1.20;;;;;;;;;;4950933;28;20211;-59
2022/04/13 01:42:35;;;;;;;1.10;1.10;;;;;;;;;;4953291;28;20207;-59
2022/04/13 01:45:02;;;;;;;2.33;1.10;;;;;;;;;;4955477;28;20208;-59
2022/04/13 01:47:29;;;;;;;1.27;1.27;;;;;;;;;;4956989;28;20699;-59
2022/04/13 01:49:56;;;;;;;1.47;1.03;;;;;;;;;;4954876;28;20215;-59
2022/04/13 01:52:23;;;;;;;1.43;1.43;;;;;;;;;;4959076;28;20228;-59
2022/04/13 01:54:50;;;;;;;3.10;1.40;;;;;;;;;;4955663;28;20266;-59
2022/04/13 01:57:21;;;;;;;3.03;1.30;;;;;;;;;;4957505;28;20582;-59
2022/04/13 01:59:48;;;;;;;1.20;1.10;;;;;;;;;;4956804;28;20207;-59
2022/04/13 02:02:16;;;;;;;2.60;1.20;;;;;;;;;;4955195;28;20578;-59
2022/04/13 02:04:43;;;;;;;1.20;1.20;;;;;;;;;;4958990;28;20206;-59
2022/04/13 02:07:10;;;;;;;1.63;1.40;;;;;;;;;;4958784;28;20688;-58
2022/04/13 02:09:37;;;;;;;2.57;1.63;;;;;;;;;;4960689;28;20207;-59
2022/04/13 02:12:04;;;;;;;1.67;1.60;;;;;;;;;;4957747;28;20230;-59
2022/04/13 02:14:33;;;;;;;3.00;2.80;;;;;;;;;;4956702;28;20926;-58
2022/04/13 02:17:00;;;;;;;10.90;6.13;;;;;;;;;;4960101;28;20610;-59
2022/04/13 02:19:27;;;;;;;5.20;2.83;;;;;;;;;;4962010;28;20207;-59
2022/04/13 02:21:54;;;;;;;6.37;4.47;;;;;;;;;;4959069;28;20206;-58
2022/04/13 02:24:21;;;;;;;8.43;4.53;;;;;;;;;;4956352;28;20203;-59
2022/04/13 02:26:48;;;;;;;7.67;4.63;;;;;;;;;;4941547;28;20384;-58
2022/04/13 02:29:15;;;;;;;9.57;5.73;;;;;;;;;;4942682;28;20609;-58
2022/04/13 02:31:44;;;;;;;3.07;2.73;;;;;;;;;;4949767;28;20314;-59
2022/04/13 02:34:11;;;;;;;5.87;3.47;;;;;;;;;;4947167;28;20653;-59
2022/04/13 02:36:38;;;;;;;2.47;2.30;;;;;;;;;;4958481;28;20250;-58
2022/04/13 02:39:05;;;;;;;3.57;1.33;;;;;;;;;;4947199;28;20283;-58
2022/04/13 02:41:32;;;;;;;1.40;1.30;;;;;;;;;;4948614;29;20207;-58
2022/04/13 02:43:59;;;;;;;1.77;1.57;;;;;;;;;;4947097;29;20285;-58
2022/04/13 02:46:26;;;;;;;2.20;1.53;;;;;;;;;;4951616;28;20210;-58
2022/04/13 02:48:54;;;;;;;1.30;1.20;;;;;;;;;;4948879;29;20615;-59
2022/04/13 02:51:21;;;;;;;1.10;1.10;;;;;;;;;;4944764;29;20311;-59
2022/04/13 02:53:48;;;;;;;2.57;1.43;;;;;;;;;;4942455;29;20208;-59
2022/04/13 02:56:17;;;;;;;1.60;1.50;;;;;;;;;;4941257;29;20232;-59
2022/04/13 02:58:44;;;;;;;3.57;1.87;;;;;;;;;;4937618;29;20207;-58
2022/04/13 03:01:11;;;;;;;1.40;1.40;;;;;;;;;;4934342;29;20242;-59
2022/04/13 03:03:38;;;;;;;1.67;1.57;;;;;;;;;;4933803;29;20212;-59
2022/04/13 03:06:06;;;;;;;2.00;1.90;;;;;;;;;;4943880;29;20669;-60
2022/04/13 03:08:33;;;;;;;1.80;1.70;;;;;;;;;;4944984;29;20222;-59
2022/04/13 03:11:01;;;;;;;2.00;1.80;;;;;;;;;;4945430;29;20215;-59
2022/04/13 03:13:28;;;;;;;2.53;1.70;;;;;;;;;;4937904;29;20333;-59
2022/04/13 03:15:55;;;;;;;2.93;1.80;;;;;;;;;;4945711;29;20209;-60
2022/04/13 03:18:22;;;;;;;1.80;1.70;;;;;;;;;;4933828;29;20279;-59
2022/04/13 03:20:49;;;;;;;1.87;1.77;;;;;;;;;;4930932;29;20634;-59
2022/04/13 03:23:17;;;;;;;1.73;1.60;;;;;;;;;;4935305;29;20208;-59
2022/04/13 03:25:44;;;;;;;1.70;1.60;;;;;;;;;;4932418;29;20234;-59
2022/04/13 03:28:11;;;;;;;1.60;1.60;;;;;;;;;;4946162;29;20630;-59
2022/04/13 03:30:38;;;;;;;2.00;1.90;;;;;;;;;;4942932;29;20238;-59
2022/04/13 03:33:05;;;;;;;3.07;1.50;;;;;;;;;;4936434;29;20280;-59
2022/04/13 03:35:32;;;;;;;1.87;1.77;;;;;;;;;;4941728;29;20352;-59
2022/04/13 03:38:00;;;;;;;1.77;1.67;;;;;;;;;;4945826;29;20255;-60
2022/04/13 03:40:28;;;;;;;4.53;1.50;;;;;;;;;;4938279;29;20694;-59
2022/04/13 03:42:55;;;;;;;1.57;1.47;;;;;;;;;;4933331;29;20259;-60
2022/04/13 03:45:22;;;;;;;2.93;1.50;;;;;;;;;;4940207;29;20466;-60
2022/04/13 03:47:49;;;;;;;1.63;1.53;;;;;;;;;;4939612;29;20207;-59
2022/04/13 03:50:17;;;;;;;1.10;1.10;;;;;;;;;;4937585;29;20218;-59
2022/04/13 03:52:44;;;;;;;1.60;1.40;;;;;;;;;;4932143;29;20239;-59
2022/04/13 03:55:11;;;;;;;1.33;1.30;;;;;;;;;;4937882;29;20211;-60
2022/04/13 03:57:40;;;;;;;1.90;1.80;;;;;;;;;;4935073;29;20214;-59
2022/04/13 04:00:08;;;;;;;2.57;2.37;;;;;;;;;;4951041;29;20645;-59
2022/04/13 04:02:37;;;;;;;6.20;2.17;;;;;;;;;;4947954;29;20211;-59
2022/04/13 04:05:04;;;;;;;22.13;8.10;;;;;;;;;;4948619;29;20639;-60
2022/04/13 04:07:31;;;;;;;11.97;6.17;;;;;;;;;;4937744;29;20215;-59
2022/04/13 04:09:58;;;;;;;17.10;7.67;;;;;;;;;;4930183;29;20266;-60
2022/04/13 04:12:25;;;;;;;31.17;13.07;;;;;;;;;;4932736;29;20228;-60
2022/04/13 04:14:54;;;;;;;10.63;4.57;;;;;;;;;;4931877;29;20215;-60
2022/04/13 04:17:21;;;;;;;2.90;2.10;;;;;;;;;;4948297;29;20277;-60
2022/04/13 04:19:48;;;;;;;14.57;6.93;;;;;;;;;;4944522;29;20218;-60
2022/04/13 04:22:15;;;;;;;13.23;6.73;;;;;;;;;;4945126;29;20203;-59
2022/04/13 04:24:42;;;;;;;18.83;8.27;;;;;;;;;;4939319;29;20204;-59
2022/04/13 04:27:09;;;;;;;13.87;7.33;;;;;;;;;;4943862;28;20275;-59
2022/04/13 04:29:36;;;;;;;8.63;4.67;;;;;;;;;;4941654;29;20242;-59
2022/04/13 04:32:05;;;;;;;8.20;4.10;;;;;;;;;;4947707;29;20235;-60
2022/04/13 04:34:33;;;;;;;4.10;3.37;;;;;;;;;;4932065;29;20819;-59
2022/04/13 04:37:00;;;;;;;14.70;6.77;;;;;;;;;;4931673;29;20212;-60
2022/04/13 04:39:28;;;;;;;4.97;3.00;;;;;;;;;;4938631;29;20254;-59
2022/04/13 04:41:55;;;;;;;2.47;1.97;;;;;;;;;;4940362;29;20208;-59
2022/04/13 04:44:22;;;;;;;1.70;1.60;;;;;;;;;;4939674;29;20207;-59
2022/04/13 04:46:49;;;;;;;4.10;2.10;;;;;;;;;;4947849;29;20220;-60
2022/04/13 04:49:18;;;;;;;1.50;1.50;;;;;;;;;;4935173;29;20226;-59
2022/04/13 04:51:45;;;;;;;1.33;1.23;;;;;;;;;;4943659;29;20243;-59
2022/04/13 04:54:12;;;;;;;1.63;1.40;;;;;;;;;;4931616;29;20263;-59
2022/04/13 04:56:39;;;;;;;1.40;1.30;;;;;;;;;;4934754;29;20749;-59
2022/04/13 04:59:06;;;;;;;1.70;1.70;;;;;;;;;;4938869;29;20208;-59
2022/04/13 05:01:33;;;;;;;3.57;1.80;;;;;;;;;;4939702;29;20210;-59
2022/04/13 05:04:00;;;;;;;1.80;1.80;;;;;;;;;;4931788;29;20204;-60
2022/04/13 05:06:29;;;;;;;1.57;1.47;;;;;;;;;;4937424;29;20214;-59
2022/04/13 05:08:56;;;;;;;2.80;1.60;;;;;;;;;;4939224;29;20204;-60
2022/04/13 05:11:24;;;;;;;1.50;1.50;;;;;;;;;;4941984;29;20220;-59
2022/04/13 05:13:51;;;;;;;1.80;1.70;;;;;;;;;;4942332;29;20224;-59
2022/04/13 05:16:18;;;;;;;1.57;1.50;;;;;;;;;;4943110;29;20212;-59
2022/04/13 05:18:46;;;;;;;2.90;1.47;;;;;;;;;;4944908;29;20675;-60
2022/04/13 05:21:13;;;;;;;1.60;1.50;;;;;;;;;;4945914;28;20207;-59
2022/04/13 05:23:42;;;;;;;1.43;1.33;;;;;;;;;;4952313;29;20289;-59
2022/04/13 05:26:09;;;;;;;1.60;1.60;;;;;;;;;;4950041;29;20242;-60
2022/04/13 05:28:36;;;;;;;1.70;1.60;;;;;;;;;;4938406;29;20259;-60
2022/04/13 05:31:03;;;;;;;2.80;1.67;;;;;;;;;;4938569;29;20259;-60
2022/04/13 05:33:30;;;;;;;4.30;1.73;;;;;;;;;;4935839;29;20246;-59
2022/04/13 05:35:57;;;;;;;2.63;1.47;;;;;;;;;;4940208;29;20218;-60
2022/04/13 05:38:24;;;;;;;3.70;1.40;;;;;;;;;;4951565;29;20215;-59
2022/04/13 05:40:53;;;;;;;3.03;1.87;;;;;;;;;;4939841;29;20432;-59
2022/04/13 05:43:20;;;;;;;2.07;1.87;;;;;;;;;;4938071;29;20203;-60
2022/04/13 05:45:47;;;;;;;1.60;1.60;;;;;;;;;;4950000;29;20214;-60
2022/04/13 05:48:15;;;;;;;2.57;1.60;;;;;;;;;;4932539;29;20208;-59
2022/04/13 05:50:42;;;;;;;1.83;1.73;;;;;;;;;;4949976;29;20230;-60
2022/04/13 05:53:09;;;;;;;1.57;1.50;;;;;;;;;;4947466;29;20258;-59
2022/04/13 05:55:36;;;;;;;2.10;2.00;;;;;;;;;;4948382;29;20258;-59
2022/04/13 05:58:04;;;;;;;3.20;1.83;;;;;;;;;;4940230;29;20204;-59
2022/04/13 06:00:31;;;;;;;1.87;1.77;;;;;;;;;;4946035;29;20211;-59
2022/04/13 06:02:58;;;;;;;3.33;1.80;;;;;;;;;;4938914;29;20820;-59
2022/04/13 06:05:25;;;;;;;2.60;2.40;;;;;;;;;;4934119;29;20259;-59
2022/04/13 06:07:53;;;;;;;2.10;2.00;;;;;;;;;;4937708;29;20216;-59
2022/04/13 06:10:20;;;;;;;1.93;1.70;;;;;;;;;;4943640;29;20231;-59
2022/04/13 06:12:48;;;;;;;2.17;2.00;;;;;;;;;;4938478;29;20279;-59
2022/04/13 06:15:16;;;;;;;3.03;2.40;;;;;;;;;;4947444;29;20250;-60
2022/04/13 06:17:43;;;;;;;1.70;1.60;;;;;;;;;;4952336;29;20215;-59
2022/04/13 06:20:11;;;;;;;1.80;1.70;;;;;;;;;;4946357;29;20363;-59
2022/04/13 06:22:38;;;;;;;1.80;1.77;;;;;;;;;;4934182;29;20203;-59
2022/04/13 06:25:06;;;;;;;1.90;1.90;;;;;;;;;;4945255;29;20227;-60
2022/04/13 06:27:33;;;;;;;2.10;2.00;;;;;;;;;;4946370;29;20218;-59
2022/04/13 06:30:00;;;;;;;2.97;1.87;;;;;;;;;;4948904;29;20238;-59
2022/04/13 06:32:35;;;;;;;2.13;2.03;;;;;;;;;;4952522;28;20211;-60
2022/04/13 06:35:03;;;;;;;3.20;2.07;;;;;;;;;;4950206;29;20210;-59
2022/04/13 06:37:30;;;;;;;2.00;1.90;;;;;;;;;;4933649;29;20640;-60
2022/04/13 06:39:57;;;;;;;2.10;2.00;;;;;;;;;;4936042;29;20218;-60
2022/04/13 06:42:24;;;;;;;2.10;1.97;;;;;;;;;;4952597;29;20211;-60
2022/04/13 06:44:54;;;;;;;2.30;2.10;;;;;;;;;;4952110;29;20317;-59
2022/04/13 06:47:21;;;;;;;2.85;2.30;;;;;;;;;;4951087;29;20212;-60
2022/04/13 06:49:49;;;;;;;2.67;2.58;;;;;;;;;;4952364;29;20203;-60
2022/04/13 06:52:17;;;;;;;2.40;2.20;;;;;;;;;;4951174;29;20877;-59
2022/04/13 06:54:44;;;;;;;3.10;2.33;;;;;;;;;;4950685;29;20219;-59
2022/04/13 06:57:11;;;;;;;3.90;2.30;;;;;;;;;;4942865;29;20211;-59
2022/04/13 06:59:38;;;;;;;2.55;2.35;;;;;;;;;;4938614;29;20207;-57
2022/04/13 07:02:06;;;;;;;2.10;1.90;;;;;;;;;;4941239;29;20942;-59
2022/04/13 07:04:34;;;;;;;2.28;2.17;;;;;;;;;;4947155;28;20212;-59
2022/04/13 07:07:03;;;;;;;2.08;1.98;;;;;;;;;;4949337;29;21018;-59
2022/04/13 07:09:30;;;;;;;2.35;1.80;;;;;;;;;;4941825;29;20203;-59
2022/04/13 07:11:57;;;;;;;2.13;2.03;;;;;;;;;;4942948;29;20215;-59
2022/04/13 07:14:24;;;;;;;2.50;2.25;;;;;;;;;;4948197;29;20250;-59
2022/04/13 07:16:51;;;;;;;3.50;2.00;;;;;;;;;;4934948;29;20212;-59
2022/04/13 07:19:18;;;;;;;2.40;2.28;;;;;;;;;;4933424;29;20274;-59
2022/04/13 07:21:46;;;;;;;2.50;2.30;;;;;;;;;;4941854;29;20204;-59
2022/04/13 07:24:14;;;;;;;2.00;1.90;;;;;;;;;;4933068;29;20219;-60
2022/04/13 07:26:41;;;;;;;1.80;1.70;;;;;;;;;;4938423;29;20231;-59
2022/04/13 07:29:08;;;;;;;2.10;1.67;;;;;;;;;;4939435;29;20283;-60
2022/04/13 07:31:35;;;;;;;1.80;1.70;;;;;;;;;;4950323;29;20211;-59
2022/04/13 07:34:03;;;;;;;1.85;1.75;;;;;;;;;;4951835;29;20238;-59
2022/04/13 07:36:30;;;;;;;2.00;1.90;;;;;;;;;;4945250;29;20290;-58
2022/04/13 07:38:57;;;;;;;1.50;1.40;;;;;;;;;;4938647;29;20214;-58
2022/04/13 07:41:25;;;;;;;1.58;1.58;;;;;;;;;;4945951;29;20667;-59
2022/04/13 07:43:53;;;;;;;1.60;1.50;;;;;;;;;;4947825;29;20207;-58
2022/04/13 07:46:20;;;;;;;1.63;1.63;;;;;;;;;;4945636;28;20854;-58
2022/04/13 07:48:47;;;;;;;3.20;1.58;;;;;;;;;;4940608;29;20351;-58
2022/04/13 07:51:14;;;;;;;1.05;1.05;;;;;;;;;;4940471;29;20297;-57
2022/04/13 07:53:41;;;;;;;1.95;1.70;;;;;;;;;;4932228;29;20231;-58
2022/04/13 07:56:08;;;;;;;1.98;1.70;;;;;;;;;;4933475;29;20215;-58
2022/04/13 07:58:37;;;;;;;1.80;1.67;;;;;;;;;;4933393;29;20212;-59
2022/04/13 08:01:04;;;;;;;2.25;1.70;;;;;;;;;;4946483;29;20214;-61
2022/04/13 08:03:31;;;;;;;1.38;1.30;;;;;;;;;;4942779;29;20203;-59
2022/04/13 08:05:58;;;;;;;2.90;1.45;;;;;;;;;;4949157;29;20277;-59
2022/04/13 08:08:25;;;;;;;1.63;1.52;;;;;;;;;;4947406;29;20215;-61
2022/04/13 08:10:52;;;;;;;2.72;1.48;;;;;;;;;;4946563;29;20214;-66
2022/04/13 08:13:19;;;;;;;1.52;1.20;;;;;;;;;;4932141;29;20231;-58
2022/04/13 08:15:48;;;;;;;4.60;2.13;;;;;;;;;;4945735;29;20215;-59
2022/04/13 08:18:15;;;;;;;2.53;1.48;;;;;;;;;;4943498;29;20214;-60
2022/04/13 08:20:42;;;;;;;1.55;1.50;;;;;;;;;;4940916;28;20730;-58
2022/04/13 08:23:09;;;;;;;1.90;1.83;;;;;;;;;;4950785;28;20222;-58
2022/04/13 08:25:36;;;;;;;2.20;1.50;;;;;;;;;;4950598;29;20290;-60
2022/04/13 08:28:03;;;;;;;2.25;1.70;;;;;;;;;;4941909;29;20749;-59
2022/04/13 08:30:30;;;;;;;1.70;1.55;;;;;;;;;;4934666;29;20291;-59
2022/04/13 08:32:58;;;;;;;1.63;1.45;;;;;;;;;;4940319;29;20207;-60
2022/04/13 08:35:25;;;;;;;4.72;2.00;;;;;;;;;;4945287;29;20215;-59
2022/04/13 08:37:53;;;;;;;1.70;1.60;;;;;;;;;;4947208;29;20207;-59
2022/04/13 08:40:21;;;;;;;1.63;1.63;;;;;;;;;;4949020;29;20613;-58
2022/04/13 08:42:52;;;;;;;1.65;1.55;;;;;;;;;;4938044;29;20216;-59
2022/04/13 08:45:21;;;;;;;1.80;1.70;;;;;;;;;;4933058;29;20216;-59
2022/04/13 08:47:50;;;;;;;1.77;1.67;;;;;;;;;;4943527;28;20221;-59
2022/04/13 08:50:19;;;;;;;4.97;2.33;;;;;;;;;;4961780;28;20688;-60
2022/04/13 08:52:51;;;;;;;2.00;1.90;;;;;;;;;;4942565;29;20624;-59
2022/04/13 08:55:19;;;;;;;2.03;1.83;;;;;;;;;;4942270;29;20257;-59
2022/04/13 08:57:47;;;;;;;2.47;1.52;;;;;;;;;;4937398;28;20219;-58
2022/04/13 09:00:15;;;;;;;1.90;1.80;;;;;;;;;;4952757;29;20482;-60
2022/04/13 09:03:06;;;;;;;1.83;1.73;;;;;;;;;;4952287;29;20267;-59
2022/04/13 09:05:35;;;;;;;1.80;1.60;;;;;;;;;;4930323;29;20705;-59
2022/04/13 09:08:07;;;;;;;1.92;1.83;;;;;;;;;;4948087;29;20211;-59
2022/04/13 09:10:34;;;;;;;4.53;1.95;;;;;;;;;;4952617;29;20748;-58
2022/04/13 09:13:02;;;;;;;1.50;1.50;;;;;;;;;;4950274;29;20208;-58
2022/04/13 09:15:30;;;;;;;2.28;2.08;;;;;;;;;;4947800;29;20211;-59
2022/04/13 09:17:57;;;;;;;1.77;1.75;;;;;;;;;;4945205;29;20210;-58
2022/04/13 09:20:24;;;;;;;5.55;1.98;;;;;;;;;;4939528;29;20211;-59
2022/04/13 09:22:54;;;;;;;3.00;2.17;;;;;;;;;;4952207;29;20266;-59
2022/04/13 09:25:21;;;;;;;2.00;1.90;;;;;;;;;;4943801;29;20221;-60
2022/04/13 09:27:49;;;;;;;2.03;1.92;;;;;;;;;;4947836;29;20749;-60
2022/04/13 09:30:17;;;;;;;2.40;2.30;;;;;;;;;;4952041;29;20330;-60
2022/04/13 09:32:44;;;;;;;2.58;2.40;;;;;;;;;;4948456;29;20219;-59
2022/04/13 09:35:11;;;;;;;2.50;2.30;;;;;;;;;;4952038;29;20235;-59
2022/04/13 09:37:38;;;;;;;3.03;2.72;;;;;;;;;;4937153;29;20989;-59
2022/04/13 09:40:07;;;;;;;2.90;2.47;;;;;;;;;;4935072;29;20218;-59
2022/04/13 09:42:36;;;;;;;2.95;2.20;;;;;;;;;;4948101;29;20211;-59
2022/04/13 09:45:03;;;;;;;2.38;2.28;;;;;;;;;;4953286;29;20281;-59
2022/04/13 09:47:32;;;;;;;2.50;2.40;;;;;;;;;;4951245;29;20210;-59
2022/04/13 09:49:59;;;;;;;2.78;2.58;;;;;;;;;;4949284;29;20682;-59
2022/04/13 09:52:33;;;;;;;2.40;2.30;;;;;;;;;;4940492;29;20215;-60
2022/04/13 09:55:00;;;;;;;2.70;2.50;;;;;;;;;;4947703;29;20231;-74
2022/04/13 09:57:29;;;;;;;3.38;2.28;;;;;;;;;;4941156;29;20654;-59
2022/04/13 09:59:57;;;;;;;3.45;2.47;;;;;;;;;;4937936;29;20354;-59
2022/04/13 10:02:37;;;;;;;2.30;2.20;;;;;;;;;;4932490;29;20204;-59
2022/04/13 10:05:04;;;;;;;3.05;2.83;;;;;;;;;;4938669;29;20202;-59
2022/04/13 10:07:31;;;;;;;4.03;3.13;;;;;;;;;;4950712;28;20252;-59
2022/04/13 10:09:58;;;;;;;3.33;2.85;;;;;;;;;;4953641;29;20223;-60
2022/04/13 10:12:25;;;;;;;4.25;3.08;;;;;;;;;;4950932;29;20631;-58
2022/04/13 10:14:54;;;;;;;6.00;3.75;;;;;;;;;;4947909;28;20239;-58
2022/04/13 10:17:21;;;;;;;3.97;3.55;;;;;;;;;;4951070;28;20576;-58
2022/04/13 10:19:57;;;;;;;5.10;3.10;;;;;;;;;;4952690;29;20269;-58
2022/04/13 10:22:24;;;;;;;2.97;2.72;;;;;;;;;;4943571;29;20210;-66
2022/04/13 10:24:51;;;;;;;4.50;3.03;;;;;;;;;;4941858;29;20629;-60
2022/04/13 10:27:19;;;;;;;4.40;3.10;;;;;;;;;;4936254;29;20637;-61
2022/04/13 10:29:46;;;;;;;3.40;3.03;;;;;;;;;;4952265;29;20247;-62
2022/04/13 10:32:16;;;;;;;2.80;2.60;;;;;;;;;;4950650;29;20215;-62
2022/04/13 10:34:44;;;;;;;4.28;3.25;;;;;;;;;;4952376;29;20234;-61
2022/04/13 10:37:11;;;;;;;5.82;2.90;;;;;;;;;;4943236;29;20591;-61
2022/04/13 10:39:41;;;;;;;4.25;2.78;;;;;;;;;;4931860;29;20695;-60
2022/04/13 10:42:08;;;;;;;2.70;2.50;;;;;;;;;;4949021;29;20306;-61
2022/04/13 10:44:36;;;;;;;4.05;2.75;;;;;;;;;;4941568;29;20206;-61
2022/04/13 10:47:04;;;;;;;8.85;3.28;;;;;;;;;;4935615;29;20213;-61
2022/04/13 10:49:36;;;;;;;3.28;2.80;;;;;;;;;;4943371;29;20200;-60
2022/04/13 10:52:05;;;;;;;4.03;2.47;;;;;;;;;;4950356;29;20203;-61
2022/04/13 10:54:33;;;;;;;2.38;2.20;;;;;;;;;;4952254;29;20239;-60
2022/04/13 10:57:04;;;;;;;2.58;2.33;;;;;;;;;;4948890;29;20686;-62
2022/04/13 10:59:34;;;;;;;2.30;2.20;;;;;;;;;;4951559;29;20305;-61
2022/04/13 11:02:06;;;;;;;2.45;2.25;;;;;;;;;;4951291;29;20211;-63
2022/04/13 11:04:34;;;;;;;2.33;2.13;;;;;;;;;;4951067;29;20230;-63
2022/04/13 11:07:02;;;;;;;2.55;2.17;;;;;;;;;;4951022;29;20222;-63
2022/04/13 11:09:31;;;;;;;3.10;1.75;;;;;;;;;;4951558;29;20219;-63
2022/04/13 11:12:00;;;;;;;3.65;2.45;;;;;;;;;;4951197;29;20218;-63
2022/04/13 11:14:28;;;;;;;2.25;2.03;;;;;;;;;;4951139;29;20239;-63
2022/04/13 11:17:23;;;;;;;2.38;2.17;;;;;;;;;;4951256;29;20255;-63
2022/04/13 11:19:51;;;;;;;1.70;1.65;;;;;;;;;;4949495;28;20218;-63
2022/04/13 11:22:19;;;;;;;6.70;2.60;;;;;;;;;;4951078;29;20264;-64
2022/04/13 11:24:58;;;;;;;2.65;2.47;;;;;;;;;;4951262;29;20215;-63
2022/04/13 11:27:26;;;;;;;2.15;2.05;;;;;;;;;;4950594;29;20266;-63
2022/04/13 11:30:00;;;;;;;2.70;2.40;;;;;;;;;;4936333;29;20337;-61
2022/04/13 11:32:29;;;;;;;2.30;2.20;;;;;;;;;;4944199;29;20210;-66
2022/04/13 11:35:00;;;;;;;2.45;1.83;;;;;;;;;;4930455;29;20223;-63
2022/04/13 11:37:28;;;;;;;2.80;2.50;;;;;;;;;;4950178;29;20223;-64
2022/04/13 11:39:57;;;;;;;2.15;1.95;;;;;;;;;;4940511;29;20582;-61
2022/04/13 11:42:45;;;;;;;3.10;2.33;;;;;;;;;;4950163;29;20671;-63
2022/04/13 11:45:13;;;;;;;2.63;2.00;;;;;;;;;;4935759;29;20623;-63
2022/04/13 11:47:43;;;;;;;2.90;2.63;;;;;;;;;;4939146;29;20215;-63
2022/04/13 11:50:22;;;;;;;3.97;2.53;;;;;;;;;;4943372;29;20298;-62
2022/04/13 11:52:51;;;;;;;2.65;2.45;;;;;;;;;;4941149;29;20207;-64
2022/04/13 11:55:18;;;;;;;5.13;2.40;;;;;;;;;;4947159;29;20702;-63
2022/04/13 11:57:52;;;;;;;2.67;2.15;;;;;;;;;;4931102;29;20211;-64
2022/04/13 12:00:34;;;;;;;2.45;2.10;;;;;;;;;;4931780;29;20428;-64
2022/04/13 12:03:02;;;;;;;2.47;2.28;;;;;;;;;;4946861;29;21067;-64
2022/04/13 12:05:30;;;;;;;4.97;2.70;;;;;;;;;;4936517;29;20218;-64
2022/04/13 12:07:59;;;;;;;2.47;2.25;;;;;;;;;;4926729;29;20216;-64
2022/04/13 12:10:27;;;;;;;2.53;2.33;;;;;;;;;;4927164;29;20208;-64
2022/04/13 12:12:55;;;;;;;3.78;2.35;;;;;;;;;;4925786;29;20204;-64
2022/04/13 12:15:23;;;;;;;2.08;1.98;;;;;;;;;;4941472;29;20239;-63
2022/04/13 12:17:51;;;;;;;4.85;2.65;;;;;;;;;;4940596;29;20207;-63
2022/04/13 12:20:32;;;;;;;2.13;2.00;;;;;;;;;;4942642;29;20216;-64
2022/04/13 12:22:59;;;;;;;2.35;2.13;;;;;;;;;;4936706;29;20223;-62
2022/04/13 12:25:26;;;;;;;2.95;2.20;;;;;;;;;;4927729;29;20726;-63
2022/04/13 12:28:06;;;;;;;3.17;2.28;;;;;;;;;;4944837;29;20218;-63
2022/04/13 12:30:33;;;;;;;5.60;2.05;;;;;;;;;;4933718;28;20242;-63
2022/04/13 12:33:00;;;;;;;4.68;2.40;;;;;;;;;;4941412;29;20225;-63
2022/04/13 12:35:27;;;;;;;2.30;2.20;;;;;;;;;;4939908;29;20649;-62
2022/04/13 12:37:57;;;;;;;2.05;1.92;;;;;;;;;;4938811;29;20219;-64
2022/04/13 12:40:25;;;;;;;2.00;1.80;;;;;;;;;;4937967;29;20210;-61
2022/04/13 12:42:52;;;;;;;2.63;2.42;;;;;;;;;;4945812;29;20439;-63
2022/04/13 12:45:19;;;;;;;2.53;2.30;;;;;;;;;;4943315;29;20239;-63
2022/04/13 12:47:47;;;;;;;1.90;1.80;;;;;;;;;;4939867;29;20207;-63
2022/04/13 12:50:14;;;;;;;1.67;1.67;;;;;;;;;;4942402;29;20212;-64
2022/04/13 12:52:42;;;;;;;3.28;1.80;;;;;;;;;;4941268;29;20267;-60
2022/04/13 12:55:11;;;;;;;3.63;1.60;;;;;;;;;;4939691;29;20341;-63
2022/04/13 12:57:38;;;;;;;3.90;2.25;;;;;;;;;;4949540;29;20215;-61
2022/04/13 13:00:06;;;;;;;2.20;2.03;;;;;;;;;;4930992;29;20216;-63
2022/04/13 13:02:33;;;;;;;1.70;1.60;;;;;;;;;;4940709;29;20970;-62
2022/04/13 13:05:04;;;;;;;1.48;1.38;;;;;;;;;;4944946;29;20257;-61
2022/04/13 13:07:33;;;;;;;1.20;1.10;;;;;;;;;;4935901;29;20306;-62
2022/04/13 13:10:00;;;;;;;1.20;1.20;;;;;;;;;;4944768;29;20216;-63
2022/04/13 13:12:28;;;;;;;2.75;1.95;;;;;;;;;;4939034;29;20214;-64
2022/04/13 13:14:57;;;;;;;1.75;1.17;;;;;;;;;;4947077;29;20238;-64
2022/04/13 13:17:26;;;;;;;1.40;1.10;;;;;;;;;;4943701;29;20229;-64
2022/04/13 13:19:54;;;;;;;1.60;1.20;;;;;;;;;;4934322;28;20706;-63
2022/04/13 13:22:24;;;;;;;1.52;1.38;;;;;;;;;;4935452;29;20620;-63
2022/04/13 13:24:53;;;;;;;2.67;1.10;;;;;;;;;;4935721;29;20219;-63
2022/04/13 13:27:24;;;;;;;2.30;1.10;;;;;;;;;;4932685;29;20215;-63
2022/04/13 13:29:52;;;;;;;0.90;0.90;;;;;;;;;;4938419;29;20758;-64
2022/04/13 13:32:20;;;;;;;1.80;1.50;;;;;;;;;;4936731;29;20211;-66
2022/04/13 13:34:51;;;;;;;0.70;0.70;;;;;;;;;;4941973;29;20238;-64
2022/04/13 13:37:35;;;;;;;0.70;0.70;;;;;;;;;;4947008;29;20212;-63
2022/04/13 13:40:02;;;;;;;0.98;0.52;;;;;;;;;;4936460;28;20963;-63
2022/04/13 13:42:29;;;;;;;0.73;0.73;;;;;;;;;;4936181;28;20255;-63
2022/04/13 13:45:15;;;;;;;0.77;0.73;;;;;;;;;;4935200;29;20633;-63
2022/04/13 13:47:43;;;;;;;3.17;0.90;;;;;;;;;;4942868;29;20299;-63
2022/04/13 13:50:10;;;;;;;0.70;0.70;;;;;;;;;;4936897;29;20335;-63
2022/04/13 13:52:43;;;;;;;0.70;0.70;;;;;;;;;;4941014;29;20235;-64
2022/04/13 13:55:10;;;;;;;3.13;0.98;;;;;;;;;;4929342;29;20681;-62
2022/04/13 13:57:37;;;;;;;1.38;0.65;;;;;;;;;;4942173;29;20897;-62
2022/04/13 14:00:09;;;;;;;1.48;0.75;;;;;;;;;;4934140;29;20428;-63
2022/04/13 14:02:36;;;;;;;0.75;0.73;;;;;;;;;;4944233;29;20219;-62
2022/04/13 14:05:03;;;;;;;1.55;0.60;;;;;;;;;;4947433;29;20321;-62
2022/04/13 14:07:31;;;;;;;0.70;0.70;;;;;;;;;;4941176;29;21032;-62
2022/04/13 14:09:58;;;;;;;0.85;0.85;;;;;;;;;;4939093;29;20211;-62
2022/04/13 14:12:25;;;;;;;3.55;1.00;;;;;;;;;;4933234;29;20220;-62
2022/04/13 14:14:54;;;;;;;0.80;0.80;;;;;;;;;;4948344;28;20215;-62
2022/04/13 14:17:23;;;;;;;0.60;0.60;;;;;;;;;;4934212;29;20238;-62
2022/04/13 14:19:50;;;;;;;1.58;0.75;;;;;;;;;;4932682;29;20266;-62
2022/04/13 14:22:17;;;;;;;3.28;1.42;;;;;;;;;;4929846;29;20307;-62
2022/04/13 14:24:44;;;;;;;13.68;2.45;;;;;;;;;;4930951;29;20234;-62
2022/04/13 14:27:11;;;;;;;23.08;3.40;;;;;;;;;;4929536;29;20263;-63
2022/04/13 14:29:38;;;;;;;21.02;2.67;;;;;;;;;;4940969;29;20234;-60
2022/04/13 14:32:06;;;;;;;8.43;1.42;;;;;;;;;;4937646;29;20220;-58
2022/04/13 14:34:34;;;;;;;6.30;1.63;;;;;;;;;;4931022;29;20208;-59
2022/04/13 14:37:01;;;;;;;3.30;0.70;;;;;;;;;;4942703;29;20301;-59
2022/04/13 14:39:28;;;;;;;1.33;1.20;;;;;;;;;;4938691;29;20709;-59
2022/04/13 14:41:55;;;;;;;0.98;0.68;;;;;;;;;;4948878;29;20219;-59
2022/04/13 14:44:22;;;;;;;0.60;0.60;;;;;;;;;;4942079;29;20580;-59
2022/04/13 14:46:49;;;;;;;0.85;0.85;;;;;;;;;;4946381;29;20266;-59
2022/04/13 14:49:17;;;;;;;0.80;0.80;;;;;;;;;;4946432;29;20215;-59